Time,TemperatureF,DewpointF,PressureIn,WindDirection,WindDirectionDegrees,WindSpeedMPH,WindSpeedGustMPH,Humidity,HourlyPrecipIn,Conditions,Clouds,dailyrainin,SolarRadiationWatts/m^2,SoftwareType,DateUTC
2013-04-19 00:03:00,31.0,31.0,-100.00,North,11,6.0,12.0,98,0.02,,,0.57,0.000000,,2013-04-19 05:03:00,
2013-04-19 00:10:00,31.0,31.0,-100.00,North,10,5.0,14.0,98,0.01,,,0.57,0.000000,,2013-04-19 05:10:00,
2013-04-19 00:32:00,31.0,31.0,-100.00,North,10,5.0,14.0,98,0.01,,,0.57,0.000000,,2013-04-19 05:32:00,
2013-04-19 00:42:00,31.0,31.0,-100.00,North,10,5.0,14.0,98,0.01,,,0.57,0.000000,,2013-04-19 05:42:00,
2013-04-19 00:52:00,31.0,31.0,-100.00,North,10,5.0,14.0,98,0.01,,,0.57,0.000000,,2013-04-19 05:52:00,
2013-04-19 01:02:00,31.0,31.0,-100.00,North,10,5.0,14.0,98,0.01,,,0.57,0.000000,,2013-04-19 06:02:00,
2013-04-19 01:10:00,31.0,31.0,-100.00,NNE,19,4.0,10.0,98,0.01,,,0.51,0.000000,,2013-04-19 06:10:00,
2013-04-19 01:32:00,31.0,31.0,-100.00,NNE,19,4.0,10.0,98,0.01,,,0.51,0.000000,,2013-04-19 06:32:00,
2013-04-19 01:42:00,31.0,31.0,-100.00,NNE,19,4.0,10.0,98,0.01,,,0.51,0.000000,,2013-04-19 06:42:00,
2013-04-19 01:53:00,31.0,31.0,-100.00,NNE,19,4.0,10.0,98,0.01,,,0.51,0.000000,,2013-04-19 06:53:00,
2013-04-19 02:02:00,31.0,31.0,-100.00,NNE,19,4.0,10.0,98,0.01,,,0.51,0.000000,,2013-04-19 07:02:00,
2013-04-19 03:10:00,30.0,29.0,-100.00,North,355,5.0,9.0,98,-99.99,,,0.54,0.000000,,2013-04-19 08:10:00,
2013-04-19 03:42:00,30.0,29.0,-100.00,North,355,5.0,9.0,98,-99.99,,,0.54,0.000000,,2013-04-19 08:42:00,
2013-04-19 03:52:00,30.0,29.0,-100.00,North,355,5.0,9.0,98,-99.99,,,0.54,0.000000,,2013-04-19 08:52:00,
2013-04-19 04:01:00,30.0,29.0,-100.00,North,355,5.0,9.0,98,-99.99,,,0.54,0.000000,,2013-04-19 09:01:00,
2013-04-19 04:10:00,29.0,29.0,-100.00,North,351,5.0,9.0,98,0.01,,,0.55,0.000000,,2013-04-19 09:10:00,
2013-04-19 04:33:00,29.0,29.0,-100.00,North,351,5.0,9.0,98,0.01,,,0.55,0.000000,,2013-04-19 09:33:00,
2013-04-19 04:43:00,29.0,29.0,-100.00,North,351,5.0,9.0,98,0.01,,,0.55,0.000000,,2013-04-19 09:43:00,
2013-04-19 04:52:00,29.0,29.0,-100.00,North,351,5.0,9.0,98,0.01,,,0.55,0.000000,,2013-04-19 09:52:00,
2013-04-19 05:02:00,29.0,29.0,-100.00,North,351,5.0,9.0,98,0.01,,,0.55,0.000000,,2013-04-19 10:02:00,
2013-04-19 05:10:00,28.0,27.0,-100.00,NNW,346,8.0,14.0,97,0.01,,,0.55,0.000000,,2013-04-19 10:10:00,
2013-04-19 05:33:00,28.0,27.0,-100.00,NNW,346,8.0,14.0,97,0.01,,,0.55,0.000000,,2013-04-19 10:33:00,
2013-04-19 05:42:00,28.0,27.0,-100.00,NNW,346,8.0,14.0,97,0.01,,,0.55,0.000000,,2013-04-19 10:42:00,
2013-04-19 05:52:00,28.0,27.0,-100.00,NNW,346,8.0,14.0,97,0.01,,,0.55,0.000000,,2013-04-19 10:52:00,
2013-04-19 06:03:00,28.0,27.0,-100.00,NNW,346,8.0,14.0,97,0.01,,,0.55,0.000000,,2013-04-19 11:03:00,
2013-04-19 06:10:00,28.0,27.0,-100.00,NNW,347,12.0,19.0,95,0.01,,,0.54,0.000000,,2013-04-19 11:10:00,
2013-04-19 06:32:00,28.0,27.0,-100.00,NNW,347,12.0,19.0,95,0.01,,,0.54,0.000000,,2013-04-19 11:32:00,
2013-04-19 06:43:00,28.0,27.0,-100.00,NNW,347,12.0,19.0,95,0.01,,,0.54,0.000000,,2013-04-19 11:43:00,
2013-04-19 06:52:00,28.0,27.0,-100.00,NNW,347,12.0,19.0,95,0.01,,,0.54,0.000000,,2013-04-19 11:52:00,
2013-04-19 07:03:00,28.0,27.0,-100.00,NNW,347,12.0,19.0,95,0.01,,,0.54,0.000000,,2013-04-19 12:03:00,
2013-04-19 07:10:00,26.0,24.0,-100.00,North,351,12.0,22.0,93,0.00,,,0.52,13.000000,,2013-04-19 12:10:00,
2013-04-19 07:42:00,26.0,24.0,-100.00,North,351,12.0,22.0,93,0.00,,,0.52,13.000000,,2013-04-19 12:42:00,
2013-04-19 07:53:00,26.0,24.0,-100.00,North,351,12.0,22.0,93,0.00,,,0.52,13.000000,,2013-04-19 12:53:00,
2013-04-19 08:01:00,26.0,24.0,-100.00,North,351,12.0,22.0,93,0.00,,,0.52,13.000000,,2013-04-19 13:01:00,
2013-04-19 08:10:00,26.0,24.0,-100.00,NNW,338,11.0,22.0,92,0.01,,,0.51,50.000000,,2013-04-19 13:10:00,
2013-04-19 08:42:00,26.0,24.0,-100.00,NNW,338,11.0,22.0,92,0.01,,,0.51,50.000000,,2013-04-19 13:42:00,
2013-04-19 08:52:00,26.0,24.0,-100.00,NNW,338,11.0,22.0,92,0.01,,,0.51,50.000000,,2013-04-19 13:52:00,
2013-04-19 09:02:00,26.0,24.0,-100.00,NNW,338,11.0,22.0,92,0.01,,,0.51,50.000000,,2013-04-19 14:02:00,
2013-04-19 09:10:00,26.0,23.0,-100.00,NNW,334,10.0,25.0,87,0.01,,,0.51,156.000000,,2013-04-19 14:10:00,
2013-04-19 09:32:00,26.0,23.0,-100.00,NNW,334,10.0,25.0,87,0.01,,,0.51,156.000000,,2013-04-19 14:32:00,
2013-04-19 09:43:00,26.0,23.0,-100.00,NNW,334,10.0,25.0,87,0.01,,,0.51,156.000000,,2013-04-19 14:43:00,
2013-04-19 09:52:00,26.0,23.0,-100.00,NNW,334,10.0,25.0,87,0.01,,,0.51,156.000000,,2013-04-19 14:52:00,
2013-04-19 10:01:00,26.0,23.0,-100.00,NNW,334,10.0,25.0,87,0.01,,,0.51,156.000000,,2013-04-19 15:01:00,
2013-04-19 10:10:00,27.0,23.0,-100.00,NNW,338,11.0,24.0,86,0.00,,,0.51,233.000000,,2013-04-19 15:10:00,
2013-04-19 10:43:00,27.0,23.0,-100.00,NNW,338,11.0,24.0,86,0.00,,,0.51,233.000000,,2013-04-19 15:43:00,
2013-04-19 10:52:00,27.0,23.0,-100.00,NNW,338,11.0,24.0,86,0.00,,,0.51,233.000000,,2013-04-19 15:52:00,
2013-04-19 11:03:00,27.0,23.0,-100.00,NNW,338,11.0,24.0,86,0.00,,,0.51,233.000000,,2013-04-19 16:03:00,
2013-04-19 11:10:00,28.0,22.0,-100.00,NNW,336,13.0,26.0,78,0.00,,,0.51,420.000000,,2013-04-19 16:10:00,
2013-04-19 11:43:00,28.0,22.0,-100.00,NNW,336,13.0,26.0,78,0.00,,,0.51,420.000000,,2013-04-19 16:43:00,
2013-04-19 11:53:00,28.0,22.0,-100.00,NNW,336,13.0,26.0,78,0.00,,,0.51,420.000000,,2013-04-19 16:53:00,
2013-04-19 12:02:00,28.0,22.0,-100.00,NNW,336,13.0,26.0,78,0.00,,,0.51,420.000000,,2013-04-19 17:02:00,
2013-04-19 12:10:00,28.0,22.0,-100.00,NNW,337,14.0,32.0,79,0.01,,,0.52,347.000000,,2013-04-19 17:10:00,
2013-04-19 12:43:00,28.0,22.0,-100.00,NNW,337,14.0,32.0,79,0.01,,,0.52,347.000000,,2013-04-19 17:43:00,
2013-04-19 12:52:00,28.0,22.0,-100.00,NNW,337,14.0,32.0,79,0.01,,,0.52,347.000000,,2013-04-19 17:52:00,
2013-04-19 13:02:00,28.0,22.0,-100.00,NNW,337,14.0,32.0,79,0.01,,,0.52,347.000000,,2013-04-19 18:02:00,
2013-04-19 13:10:00,29.0,22.0,-100.00,NNW,329,14.0,26.0,75,0.00,,,0.52,531.000000,,2013-04-19 18:10:00,
2013-04-19 13:43:00,29.0,22.0,-100.00,NNW,329,14.0,26.0,75,0.00,,,0.52,531.000000,,2013-04-19 18:43:00,
2013-04-19 13:52:00,29.0,22.0,-100.00,NNW,329,14.0,26.0,75,0.00,,,0.52,531.000000,,2013-04-19 18:52:00,
2013-04-19 14:02:00,29.0,22.0,-100.00,NNW,329,14.0,26.0,75,0.00,,,0.52,531.000000,,2013-04-19 19:02:00,
2013-04-19 14:10:00,25.0,17.0,-100.00,NNW,344,13.0,26.0,72,0.00,,,0.51,349.000000,,2013-04-19 19:10:00,
2013-04-19 14:32:00,25.0,17.0,-100.00,NNW,344,13.0,26.0,72,0.00,,,0.51,349.000000,,2013-04-19 19:32:00,
2013-04-19 14:42:00,25.0,17.0,-100.00,NNW,344,13.0,26.0,72,0.00,,,0.51,349.000000,,2013-04-19 19:42:00,
2013-04-19 14:52:00,25.0,17.0,-100.00,NNW,344,13.0,26.0,72,0.00,,,0.51,349.000000,,2013-04-19 19:52:00,
2013-04-19 15:02:00,25.0,17.0,-100.00,NNW,344,13.0,26.0,72,0.00,,,0.51,349.000000,,2013-04-19 20:02:00,
2013-04-19 15:10:00,25.0,19.0,-100.00,NNW,335,11.0,23.0,77,0.00,,,0.51,269.000000,,2013-04-19 20:10:00,
2013-04-19 15:42:00,25.0,19.0,-100.00,NNW,335,11.0,23.0,77,0.00,,,0.51,269.000000,,2013-04-19 20:42:00,
2013-04-19 15:52:00,25.0,19.0,-100.00,NNW,335,11.0,23.0,77,0.00,,,0.51,269.000000,,2013-04-19 20:52:00,
2013-04-19 16:01:00,25.0,19.0,-100.00,NNW,335,11.0,23.0,77,0.00,,,0.51,269.000000,,2013-04-19 21:01:00,
2013-04-19 17:10:00,25.0,16.0,-100.00,NNW,335,10.0,28.0,68,-99.99,,,0.51,281.000000,,2013-04-19 22:10:00,
2013-04-19 17:33:00,25.0,16.0,-100.00,NNW,335,10.0,28.0,68,-99.99,,,0.51,281.000000,,2013-04-19 22:33:00,
2013-04-19 17:42:00,25.0,16.0,-100.00,NNW,335,10.0,28.0,68,-99.99,,,0.51,281.000000,,2013-04-19 22:42:00,
2013-04-19 17:52:00,25.0,16.0,-100.00,NNW,335,10.0,28.0,68,-99.99,,,0.51,281.000000,,2013-04-19 22:52:00,
2013-04-19 18:03:00,25.0,16.0,-100.00,NNW,335,10.0,28.0,68,-99.99,,,0.51,281.000000,,2013-04-19 23:03:00,
2013-04-19 18:10:00,24.0,18.0,-100.00,NNW,332,9.0,24.0,76,0.00,,,0.44,205.000000,,2013-04-19 23:10:00,
2013-04-19 18:42:00,24.0,18.0,-100.00,NNW,332,9.0,24.0,76,0.00,,,0.44,205.000000,,2013-04-19 23:42:00,
2013-04-19 18:52:00,24.0,18.0,-100.00,NNW,332,9.0,24.0,76,0.00,,,0.44,205.000000,,2013-04-19 23:52:00,
2013-04-19 19:02:00,24.0,18.0,-100.00,NNW,332,9.0,24.0,76,0.00,,,0.44,205.000000,,2013-04-20 00:02:00,
2013-04-19 20:10:00,21.0,16.0,-100.00,NNW,342,10.0,24.0,82,-99.99,,,0.20,11.000000,,2013-04-20 01:10:00,
2013-04-19 20:32:00,21.0,16.0,-100.00,NNW,342,10.0,24.0,82,-99.99,,,0.20,11.000000,,2013-04-20 01:32:00,
2013-04-19 20:42:00,21.0,16.0,-100.00,NNW,342,10.0,24.0,82,-99.99,,,0.20,11.000000,,2013-04-20 01:42:00,
2013-04-19 20:52:00,21.0,16.0,-100.00,NNW,342,10.0,24.0,82,-99.99,,,0.20,11.000000,,2013-04-20 01:52:00,
2013-04-19 21:01:00,21.0,16.0,-100.00,NNW,342,10.0,24.0,82,-99.99,,,0.20,11.000000,,2013-04-20 02:01:00,
2013-04-19 21:10:00,21.0,18.0,-100.00,NNW,337,9.0,17.0,87,0.00,,,0.17,0.000000,,2013-04-20 02:10:00,
2013-04-19 21:32:00,21.0,18.0,-100.00,NNW,337,9.0,17.0,87,0.00,,,0.17,0.000000,,2013-04-20 02:32:00,
2013-04-19 21:42:00,21.0,18.0,-100.00,NNW,337,9.0,17.0,87,0.00,,,0.17,0.000000,,2013-04-20 02:42:00,
2013-04-19 21:52:00,21.0,18.0,-100.00,NNW,337,9.0,17.0,87,0.00,,,0.17,0.000000,,2013-04-20 02:52:00,
2013-04-19 22:01:00,21.0,18.0,-100.00,NNW,337,9.0,17.0,87,0.00,,,0.17,0.000000,,2013-04-20 03:01:00,
2013-04-19 22:10:00,20.0,16.0,-100.00,NNW,342,8.0,18.0,83,0.00,,,0.14,0.000000,,2013-04-20 03:10:00,
2013-04-19 22:43:00,20.0,16.0,-100.00,NNW,342,8.0,18.0,83,0.00,,,0.14,0.000000,,2013-04-20 03:43:00,
2013-04-19 22:53:00,20.0,16.0,-100.00,NNW,342,8.0,18.0,83,0.00,,,0.14,0.000000,,2013-04-20 03:53:00,
2013-04-19 23:03:00,20.0,16.0,-100.00,NNW,342,8.0,18.0,83,0.00,,,0.14,0.000000,,2013-04-20 04:03:00,
2013-04-19 23:10:00,20.0,16.0,-100.00,NNW,335,8.0,16.0,86,0.00,,,0.12,0.000000,,2013-04-20 04:10:00,
2013-04-19 23:43:00,20.0,16.0,-100.00,NNW,335,8.0,16.0,86,0.00,,,0.12,0.000000,,2013-04-20 04:43:00,
2013-04-19 23:53:00,20.0,16.0,-100.00,NNW,335,8.0,16.0,86,0.00,,,0.12,0.000000,,2013-04-20 04:53:00,